createdAt,value
2022-11-07T00:00:26.844Z,10.80
2022-11-07T00:03:29.566Z,10.88
2022-11-07T00:06:34.030Z,10.88
2022-11-07T00:09:37.302Z,10.81
2022-11-07T00:12:40.779Z,10.88
2022-11-07T00:15:43.502Z,10.91
2022-11-07T00:18:46.504Z,10.93
2022-11-07T00:21:51.024Z,10.93
2022-11-07T00:24:54.050Z,10.95
2022-11-07T00:27:56.740Z,10.97
2022-11-07T00:30:59.910Z,10.98
2022-11-07T00:34:04.021Z,11.01
2022-11-07T00:37:08.113Z,11.01
2022-11-07T00:40:11.707Z,10.98
2022-11-07T00:43:14.876Z,10.99
2022-11-07T00:46:19.843Z,11.02
2022-11-07T00:49:23.035Z,11.06
2022-11-07T00:52:27.451Z,11.05
2022-11-07T00:55:30.601Z,11.09
2022-11-07T00:58:33.696Z,11.09
2022-11-07T01:01:36.685Z,10.93
2022-11-07T01:04:57.394Z,11.14
2022-11-07T01:08:01.466Z,11.16
2022-11-07T01:11:06.133Z,11.18
2022-11-07T01:14:10.444Z,11.18
2022-11-07T01:17:13.178Z,11.23
2022-11-07T01:20:16.146Z,11.22
2022-11-07T01:23:20.232Z,11.25
2022-11-07T01:26:23.369Z,11.23
2022-11-07T01:29:26.103Z,11.32
2022-11-07T01:32:29.539Z,11.27
2022-11-07T01:35:33.566Z,11.26
2022-11-07T01:38:39.900Z,11.30
2022-11-07T01:41:43.447Z,11.30
2022-11-07T01:44:56.886Z,11.29
2022-11-07T01:48:03.556Z,11.31
2022-11-07T01:51:07.782Z,11.33
2022-11-07T01:54:14.637Z,11.35
2022-11-07T01:57:23.372Z,11.40
2022-11-07T02:00:27.624Z,11.37
2022-11-07T02:03:30.432Z,11.39
2022-11-07T02:06:47.540Z,11.39
2022-11-07T02:09:53.618Z,11.42
2022-11-07T02:12:59.983Z,11.44
2022-11-07T02:16:05.466Z,11.46
2022-11-07T02:19:14.405Z,11.46
2022-11-07T02:22:24.844Z,11.48
2022-11-07T02:25:30.708Z,11.50
2022-11-07T02:28:35.565Z,11.51
2022-11-07T02:31:38.635Z,11.48
2022-11-07T02:34:41.479Z,11.49
2022-11-07T02:37:44.363Z,11.50
2022-11-07T02:40:52.659Z,11.49
2022-11-07T02:44:00.879Z,11.50
2022-11-07T02:47:04.201Z,11.51
2022-11-07T02:50:08.814Z,11.53
2022-11-07T02:53:12.636Z,11.54
2022-11-07T02:56:17.281Z,11.54
2022-11-07T02:59:25.738Z,11.54
2022-11-07T03:02:30.253Z,11.56
2022-11-07T03:05:33.655Z,11.60
2022-11-07T03:08:36.693Z,11.58
2022-11-07T03:11:40.785Z,11.60
2022-11-07T03:14:43.635Z,11.63
2022-11-07T03:17:46.892Z,11.60
2022-11-07T03:20:49.780Z,11.64
2022-11-07T03:23:53.064Z,11.64
2022-11-07T03:26:57.178Z,11.65
2022-11-07T03:30:00.338Z,11.62
2022-11-07T03:33:03.286Z,11.62
2022-11-07T03:36:07.331Z,11.55
2022-11-07T03:39:11.271Z,11.51
2022-11-07T03:42:15.917Z,11.48
2022-11-07T03:45:19.434Z,11.49
2022-11-07T03:48:22.165Z,11.52
2022-11-07T03:51:25.149Z,11.55
2022-11-07T03:54:28.527Z,11.60
2022-11-07T03:57:32.654Z,11.60
2022-11-07T04:00:35.533Z,11.59
2022-11-07T04:03:38.464Z,11.51
2022-11-07T04:06:41.281Z,11.40
2022-11-07T04:09:44.021Z,11.27
2022-11-07T04:13:05.467Z,11.14
2022-11-07T04:16:23.830Z,10.78
2022-11-07T04:19:27.654Z,10.96
2022-11-07T04:22:31.030Z,10.95
2022-11-07T04:26:05.654Z,10.96
2022-11-07T04:29:09.745Z,10.97
2022-11-07T04:32:12.475Z,10.95
2022-11-07T04:35:15.861Z,10.89
2022-11-07T04:38:18.651Z,10.87
2022-11-07T04:41:23.665Z,10.87
2022-11-07T04:44:27.810Z,10.84
2022-11-07T04:47:31.145Z,10.89
2022-11-07T04:50:33.908Z,10.99
2022-11-07T04:53:37.053Z,11.09
2022-11-07T04:56:40.256Z,11.21
2022-11-07T04:59:44.331Z,11.26
2022-11-07T05:02:48.193Z,11.36
2022-11-07T05:05:51.119Z,11.42
2022-11-07T05:08:54.305Z,11.42
2022-11-07T05:11:57.361Z,11.43
2022-11-07T05:15:02.246Z,11.46
2022-11-07T05:18:05.233Z,11.46
2022-11-07T05:21:08.043Z,11.50
2022-11-07T05:24:11.784Z,11.52
2022-11-07T05:27:20.069Z,11.47
2022-11-07T05:30:24.544Z,11.45
2022-11-07T05:33:27.898Z,11.44
2022-11-07T05:36:31.089Z,11.43
2022-11-07T05:39:34.520Z,11.48
2022-11-07T05:42:37.702Z,11.53
2022-11-07T05:45:42.622Z,11.52
2022-11-07T05:48:45.941Z,11.53
2022-11-07T05:51:49.146Z,11.43
2022-11-07T05:54:51.896Z,11.37
2022-11-07T05:57:56.407Z,11.33
2022-11-07T06:01:03.649Z,11.28
2022-11-07T06:04:06.425Z,11.30
2022-11-07T06:07:09.156Z,11.31
2022-11-07T06:10:12.471Z,11.26
2022-11-07T06:13:18.102Z,11.19
2022-11-07T06:16:22.424Z,11.13
2022-11-07T06:19:25.277Z,11.05
2022-11-07T06:22:27.998Z,11.04
2022-11-07T06:25:31.348Z,11.07
2022-11-07T06:28:34.077Z,11.18
2022-11-07T06:31:38.173Z,11.31
2022-11-07T06:34:41.546Z,11.33
2022-11-07T06:37:44.329Z,11.35
2022-11-07T06:40:48.241Z,11.41
2022-11-07T06:43:51.661Z,11.52
2022-11-07T06:46:56.385Z,11.59
2022-11-07T06:49:59.109Z,11.61
2022-11-07T06:53:04.101Z,11.59
2022-11-07T06:56:09.061Z,11.66
2022-11-07T06:59:11.963Z,11.68
2022-11-07T07:02:30.823Z,11.78
2022-11-07T07:05:39.832Z,11.83
2022-11-07T07:08:42.969Z,11.90
2022-11-07T07:11:46.046Z,11.89
2022-11-07T07:14:48.774Z,12.05
2022-11-07T07:17:53.116Z,12.13
2022-11-07T07:21:03.085Z,12.20
2022-11-07T07:24:06.841Z,12.31
2022-11-07T07:27:09.620Z,12.38
2022-11-07T07:30:13.872Z,12.44
2022-11-07T07:33:18.697Z,12.48
2022-11-07T07:36:22.384Z,12.51
2022-11-07T07:39:27.539Z,12.49
2022-11-07T07:42:30.356Z,12.48
2022-11-07T07:45:33.510Z,12.50
2022-11-07T07:48:37.586Z,12.54
2022-11-07T07:51:40.426Z,12.61
2022-11-07T07:54:43.153Z,12.70
2022-11-07T07:57:46.357Z,12.80
2022-11-07T08:00:52.865Z,12.87
2022-11-07T08:04:02.028Z,12.93
2022-11-07T08:07:05.179Z,12.98
2022-11-07T08:10:35.111Z,12.98
2022-11-07T08:13:31.914Z,13.00
2022-11-07T08:16:34.804Z,13.01
2022-11-07T08:19:38.886Z,13.03
2022-11-07T08:22:42.217Z,13.09
2022-11-07T08:25:50.900Z,13.08
2022-11-07T08:28:55.235Z,13.08
2022-11-07T08:31:58.795Z,13.11
2022-11-07T08:35:02.858Z,13.19
2022-11-07T08:38:06.800Z,13.24
2022-11-07T08:41:09.590Z,13.38
2022-11-07T08:44:13.058Z,13.48
2022-11-07T08:47:15.803Z,13.54
2022-11-07T08:50:20.117Z,13.56
2022-11-07T08:53:23.971Z,13.53
2022-11-07T08:56:26.727Z,13.48
2022-11-07T08:59:30.204Z,13.45
2022-11-07T09:05:58.393Z,13.34
2022-11-07T09:09:01.391Z,13.30
2022-11-07T09:12:04.202Z,13.28
2022-11-07T09:15:07.981Z,13.35
2022-11-07T09:18:10.750Z,13.48
2022-11-07T09:21:21.762Z,13.61
2022-11-07T09:24:25.048Z,13.80
2022-11-07T09:27:28.222Z,13.87
2022-11-07T09:30:31.008Z,14.01
2022-11-07T09:33:34.148Z,14.14
2022-11-07T09:36:38.182Z,14.36
2022-11-07T09:39:41.379Z,14.58
2022-11-07T09:42:54.436Z,14.71
2022-11-07T09:46:11.118Z,14.83
2022-11-07T09:49:19.552Z,14.97
2022-11-07T09:52:29.697Z,15.08
2022-11-07T09:55:35.671Z,15.13
2022-11-07T09:58:42.953Z,15.05
2022-11-07T10:01:46.339Z,14.94
2022-11-07T10:04:56.363Z,14.83
2022-11-07T10:08:08.919Z,14.83
2022-11-07T10:11:17.869Z,14.94
2022-11-07T10:14:29.328Z,14.99
2022-11-07T10:17:43.135Z,15.05
2022-11-07T10:21:16.195Z,15.08
2022-11-07T10:24:36.284Z,15.02
2022-11-07T10:27:40.059Z,14.97
2022-11-07T10:30:46.225Z,14.85
2022-11-07T10:33:55.325Z,14.75
2022-11-07T10:36:58.081Z,14.66
2022-11-07T10:40:02.785Z,14.58
2022-11-07T10:43:10.320Z,14.53
2022-11-07T10:46:18.148Z,14.52
2022-11-07T10:49:22.503Z,14.70
2022-11-07T10:52:26.239Z,14.89
2022-11-07T10:55:34.891Z,15.01
2022-11-07T10:58:45.971Z,15.12
2022-11-07T11:01:52.221Z,15.21
2022-11-07T11:04:56.594Z,15.30
2022-11-07T11:08:14.453Z,15.46
2022-11-07T11:11:28.322Z,15.56
2022-11-07T11:14:31.218Z,15.81
2022-11-07T11:17:34.921Z,15.92
2022-11-07T11:20:40.985Z,15.93
2022-11-07T11:23:46.180Z,15.86
2022-11-07T11:26:53.151Z,15.90
2022-11-07T11:30:01.386Z,15.95
2022-11-07T11:33:11.611Z,15.97
2022-11-07T11:36:19.641Z,15.97
2022-11-07T11:39:28.569Z,16.00
2022-11-07T11:42:41.837Z,16.08
2022-11-07T11:45:53.543Z,16.20
2022-11-07T11:49:00.976Z,16.36
2022-11-07T11:52:12.239Z,16.59
2022-11-07T11:55:16.928Z,16.76
2022-11-07T11:58:33.228Z,16.82
2022-11-07T12:01:44.112Z,16.79
2022-11-07T12:04:57.983Z,16.74
2022-11-07T12:08:14.420Z,16.61
2022-11-07T12:11:24.792Z,16.57
2022-11-07T12:14:57.005Z,16.51
2022-11-07T12:18:06.445Z,16.43
2022-11-07T12:21:21.823Z,16.32
2022-11-07T12:24:34.379Z,16.27
2022-11-07T12:27:47.233Z,16.28
2022-11-07T12:31:02.138Z,16.27
2022-11-07T12:34:18.503Z,16.30
2022-11-07T12:37:57.235Z,16.33
2022-11-07T12:41:07.615Z,16.41
2022-11-07T12:44:29.116Z,16.41
2022-11-07T12:47:50.053Z,16.40
2022-11-07T12:51:04.032Z,16.40
2022-11-07T12:54:26.076Z,16.42
2022-11-07T12:57:33.028Z,16.60
2022-11-07T13:00:37.272Z,16.77
2022-11-07T13:04:06.696Z,16.92
2022-11-07T13:07:18.896Z,16.93
2022-11-07T13:10:27.431Z,16.92
2022-11-07T13:13:39.815Z,16.91
2022-11-07T13:16:52.692Z,16.81
2022-11-07T13:20:05.531Z,16.65
2022-11-07T13:23:17.235Z,16.65
2022-11-07T13:29:53.040Z,16.45
2022-11-07T13:32:55.914Z,16.47
2022-11-07T13:36:12.762Z,16.59
2022-11-07T13:39:22.678Z,16.74
2022-11-07T13:42:29.245Z,16.80
2022-11-07T13:45:38.752Z,16.89
2022-11-07T13:48:48.919Z,16.89
2022-11-07T13:51:56.491Z,16.89
2022-11-07T13:55:07.868Z,16.80
2022-11-07T13:58:15.179Z,16.58
2022-11-07T14:01:18.572Z,16.53
2022-11-07T14:04:22.620Z,16.43
2022-11-07T14:07:27.209Z,16.48
2022-11-07T14:10:33.641Z,16.41
2022-11-07T14:13:41.566Z,16.35
2022-11-07T14:16:46.628Z,16.29
2022-11-07T14:19:49.516Z,16.25
2022-11-07T14:22:55.925Z,16.17
2022-11-07T14:26:02.082Z,16.10
2022-11-07T14:29:04.953Z,16.05
2022-11-07T14:32:08.869Z,15.94
2022-11-07T14:35:11.710Z,15.90
2022-11-07T14:38:20.355Z,15.83
2022-11-07T14:41:24.232Z,15.79
2022-11-07T14:44:47.654Z,15.76
2022-11-07T14:47:54.558Z,15.74
2022-11-07T14:50:58.493Z,15.70
2022-11-07T14:54:07.829Z,15.67
2022-11-07T14:57:14.011Z,15.63
2022-11-07T15:00:20.432Z,15.59
2022-11-07T15:03:30.633Z,15.51
2022-11-07T15:06:35.685Z,15.52
2022-11-07T15:09:40.832Z,15.50
2022-11-07T15:12:51.171Z,15.44
2022-11-07T15:16:01.857Z,15.38
2022-11-07T15:19:07.178Z,15.34
2022-11-07T15:22:28.068Z,15.28
2022-11-07T15:25:37.641Z,15.21
2022-11-07T15:28:48.699Z,15.18
2022-11-07T15:31:51.606Z,15.14
2022-11-07T15:35:23.298Z,15.12
2022-11-07T15:38:22.472Z,15.07
2022-11-07T15:41:26.597Z,15.03
2022-11-07T15:44:29.362Z,15.01
2022-11-07T15:47:32.422Z,14.98
2022-11-07T15:50:40.551Z,14.93
2022-11-07T15:53:43.300Z,14.92
2022-11-07T15:56:48.169Z,14.87
2022-11-07T15:59:50.948Z,14.87
2022-11-07T16:02:54.250Z,14.85
2022-11-07T16:06:02.279Z,14.82
2022-11-07T16:09:05.796Z,14.82
2022-11-07T16:12:10.507Z,14.80
2022-11-07T16:15:13.924Z,14.79
2022-11-07T16:18:18.692Z,14.78
2022-11-07T16:21:22.035Z,14.77
2022-11-07T16:24:24.822Z,14.74
2022-11-07T16:27:29.043Z,14.73
2022-11-07T16:30:32.656Z,14.71
2022-11-07T16:33:35.650Z,14.70
2022-11-07T16:36:39.534Z,14.63
2022-11-07T16:39:42.422Z,14.67
2022-11-07T16:42:47.460Z,14.64
2022-11-07T16:45:52.684Z,14.61
2022-11-07T16:48:59.491Z,14.61
2022-11-07T16:52:04.288Z,14.60
2022-11-07T16:55:07.947Z,14.58
2022-11-07T16:58:23.781Z,14.53
2022-11-07T17:01:28.025Z,14.52
2022-11-07T17:04:30.881Z,14.49
2022-11-07T17:07:33.979Z,14.47
2022-11-07T17:10:36.709Z,14.44
2022-11-07T17:13:41.169Z,14.40
2022-11-07T17:16:48.383Z,14.36
2022-11-07T17:19:51.481Z,14.31
2022-11-07T17:22:54.589Z,14.25
2022-11-07T17:25:59.628Z,14.19
2022-11-07T17:29:06.967Z,14.09
2022-11-07T17:32:10.118Z,14.05
2022-11-07T17:38:36.404Z,13.98
2022-11-07T17:41:40.247Z,13.97
2022-11-07T17:44:44.501Z,13.97
2022-11-07T17:47:47.212Z,13.93
2022-11-07T17:50:49.983Z,13.91
2022-11-07T17:53:52.708Z,13.85
2022-11-07T17:56:55.572Z,13.79
2022-11-07T17:59:59.982Z,13.62
2022-11-07T18:03:04.152Z,13.62
2022-11-07T18:06:07.346Z,13.60
2022-11-07T18:09:15.347Z,13.50
2022-11-07T18:12:18.164Z,13.40
2022-11-07T18:15:22.346Z,13.32
2022-11-07T18:18:25.130Z,13.22
2022-11-07T18:21:29.254Z,13.12
2022-11-07T18:24:32.247Z,13.05
2022-11-07T18:27:35.028Z,13.06
2022-11-07T18:30:39.098Z,13.01
2022-11-07T18:33:42.653Z,12.98
2022-11-07T18:36:46.519Z,13.02
2022-11-07T18:39:49.374Z,12.97
2022-11-07T18:42:52.136Z,13.00
2022-11-07T18:45:57.206Z,13.12
2022-11-07T18:49:00.620Z,13.13
2022-11-07T18:52:03.866Z,13.17
2022-11-07T18:55:07.248Z,13.22
2022-11-07T18:58:10.674Z,13.26
2022-11-07T19:01:17.462Z,13.24
2022-11-07T19:04:20.557Z,13.32
2022-11-07T19:07:23.276Z,13.35
2022-11-07T19:10:26.081Z,13.35
2022-11-07T19:13:29.379Z,13.34
2022-11-07T19:16:33.645Z,13.40
2022-11-07T19:19:36.707Z,13.42
2022-11-07T19:22:40.408Z,13.44
2022-11-07T19:25:43.628Z,13.45
2022-11-07T19:28:46.427Z,13.40
2022-11-07T19:31:50.548Z,13.44
2022-11-07T19:34:53.292Z,13.43
2022-11-07T19:37:56.129Z,13.36
2022-11-07T19:41:03.008Z,13.32
2022-11-07T19:44:06.132Z,13.24
2022-11-07T19:47:10.600Z,13.14
2022-11-07T19:50:13.720Z,13.01
2022-11-07T19:53:17.106Z,12.94
2022-11-07T19:56:20.133Z,12.87
2022-11-07T19:59:23.005Z,12.84
2022-11-07T20:02:38.712Z,12.82
2022-11-07T20:05:45.614Z,12.82
2022-11-07T20:08:49.102Z,12.85
2022-11-07T20:11:51.849Z,12.92
2022-11-07T20:14:55.187Z,13.03
2022-11-07T20:17:59.307Z,12.90
2022-11-07T20:21:03.563Z,12.86
2022-11-07T20:24:09.074Z,12.96
2022-11-07T20:27:11.912Z,12.96
2022-11-07T20:30:15.330Z,12.89
2022-11-07T20:33:19.561Z,12.85
2022-11-07T20:36:22.907Z,12.79
2022-11-07T20:39:25.670Z,12.76
2022-11-07T20:42:29.220Z,12.72
2022-11-07T20:45:31.978Z,12.67
2022-11-07T20:48:36.795Z,12.54
2022-11-07T20:51:41.187Z,12.65
2022-11-07T20:54:43.935Z,12.64
2022-11-07T20:57:46.704Z,12.66
2022-11-07T21:00:49.536Z,12.57
2022-11-07T21:03:54.492Z,12.38
2022-11-07T21:06:57.460Z,12.28
2022-11-07T21:10:00.204Z,12.18
2022-11-07T21:13:05.378Z,12.02
2022-11-07T21:16:09.370Z,11.90
2022-11-07T21:19:16.299Z,11.81
2022-11-07T21:22:19.569Z,11.70
2022-11-07T21:25:22.404Z,11.60
2022-11-07T21:28:26.424Z,11.54
2022-11-07T21:31:31.964Z,11.44
2022-11-07T21:34:37.673Z,11.37
2022-11-07T21:37:40.491Z,11.30
2022-11-07T21:40:43.260Z,11.21
2022-11-07T21:43:46.629Z,11.14
2022-11-07T21:46:49.897Z,11.07
2022-11-07T21:49:54.338Z,10.99
2022-11-07T21:52:57.268Z,11.01
2022-11-07T21:56:02.214Z,10.89
2022-11-07T21:59:07.436Z,10.90
2022-11-07T22:02:12.981Z,10.77
2022-11-07T22:05:17.280Z,10.74
2022-11-07T22:08:23.669Z,10.69
2022-11-07T22:11:27.183Z,10.77
2022-11-07T22:14:30.441Z,10.74
2022-11-07T22:17:33.188Z,10.64
2022-11-07T22:20:39.013Z,10.56
2022-11-07T22:23:42.159Z,10.61
2022-11-07T22:26:45.535Z,10.45
2022-11-07T22:29:48.253Z,10.54
2022-11-07T22:32:52.032Z,10.47
2022-11-07T22:35:57.335Z,10.38
2022-11-07T22:39:00.426Z,10.26
2022-11-07T22:42:03.682Z,10.20
2022-11-07T22:45:07.741Z,10.14
2022-11-07T22:48:11.091Z,10.09
2022-11-07T22:51:16.901Z,10.04
2022-11-07T22:54:20.084Z,10.03
2022-11-07T22:57:22.847Z,9.99
2022-11-07T23:00:25.702Z,10.02
2022-11-07T23:03:29.021Z,10.00
2022-11-07T23:06:34.073Z,10.03
2022-11-07T23:09:36.950Z,9.98
2022-11-07T23:12:40.128Z,9.90
2022-11-07T23:15:42.870Z,9.93
2022-11-07T23:18:46.092Z,9.94
2022-11-07T23:21:50.893Z,10.00
2022-11-07T23:24:54.143Z,9.87
2022-11-07T23:27:57.219Z,9.82
2022-11-07T23:30:59.948Z,9.79
2022-11-07T23:34:03.282Z,9.77
2022-11-07T23:37:13.775Z,9.79
2022-11-07T23:40:17.230Z,9.83
2022-11-07T23:43:19.956Z,9.78
2022-11-07T23:46:40.367Z,9.80
2022-11-07T23:50:09.324Z,9.61
2022-11-07T23:53:27.353Z,9.51
2022-11-07T23:56:30.724Z,9.54
2022-11-07T23:59:51.772Z,9.61
